createdAt,value
2019-03-27T00:00:09.490Z,3.14
2019-03-27T00:02:38.031Z,3.16
2019-03-27T00:05:06.698Z,3.20
2019-03-27T00:07:35.152Z,3.22
2019-03-27T00:10:05.543Z,3.26
2019-03-27T00:12:34.051Z,3.31
2019-03-27T00:15:12.801Z,3.36
2019-03-27T00:17:32.716Z,3.41
2019-03-27T00:20:01.198Z,3.46
2019-03-27T00:22:29.655Z,3.51
2019-03-27T00:24:58.127Z,3.56
2019-03-27T00:27:26.651Z,3.58
2019-03-27T00:29:55.105Z,3.57
2019-03-27T00:32:23.572Z,3.57
2019-03-27T00:34:52.067Z,3.62
2019-03-27T00:37:20.534Z,3.61
2019-03-27T00:39:48.986Z,3.59
2019-03-27T00:42:17.960Z,3.57
2019-03-27T00:44:46.412Z,3.57
2019-03-27T00:47:14.870Z,3.55
2019-03-27T00:49:43.394Z,3.53
2019-03-27T00:52:11.856Z,3.51
2019-03-27T00:54:40.405Z,3.48
2019-03-27T00:57:08.889Z,3.45
2019-03-27T00:59:37.363Z,3.43
2019-03-27T01:02:05.827Z,3.42
2019-03-27T01:04:34.336Z,3.42
2019-03-27T01:07:03.196Z,3.41
2019-03-27T01:09:31.643Z,3.40
2019-03-27T01:12:00.156Z,3.42
2019-03-27T01:14:28.613Z,3.43
2019-03-27T01:16:57.226Z,3.46
2019-03-27T01:19:25.712Z,3.50
2019-03-27T01:21:54.180Z,3.51
2019-03-27T01:24:22.636Z,3.53
2019-03-27T01:26:51.135Z,3.53
2019-03-27T01:29:19.605Z,3.54
2019-03-27T01:31:48.058Z,3.54
2019-03-27T01:34:16.573Z,3.55
2019-03-27T01:36:45.030Z,3.55
2019-03-27T01:39:13.483Z,3.56
2019-03-27T01:41:41.996Z,3.57
2019-03-27T01:44:10.448Z,3.59
2019-03-27T01:46:38.912Z,3.59
2019-03-27T01:49:07.432Z,3.65
2019-03-27T01:51:35.885Z,3.65
2019-03-27T01:54:04.365Z,3.68
2019-03-27T01:56:32.861Z,3.73
2019-03-27T01:59:01.325Z,3.78
2019-03-27T02:01:29.788Z,3.83
2019-03-27T02:03:58.273Z,3.90
2019-03-27T02:06:26.727Z,3.97
2019-03-27T02:08:55.309Z,4.10
2019-03-27T02:11:23.811Z,4.10
2019-03-27T02:13:52.264Z,4.22
2019-03-27T02:16:20.718Z,4.22
2019-03-27T02:18:49.234Z,4.27
2019-03-27T02:21:17.706Z,4.35
2019-03-27T02:23:46.178Z,4.41
2019-03-27T02:26:14.677Z,4.47
2019-03-27T02:28:43.127Z,4.53
2019-03-27T02:31:11.604Z,4.58
2019-03-27T02:33:40.110Z,4.58
2019-03-27T02:36:08.557Z,4.73
2019-03-27T02:38:37.041Z,4.78
2019-03-27T02:41:05.518Z,4.78
2019-03-27T02:43:33.952Z,4.82
2019-03-27T02:46:02.414Z,4.91
2019-03-27T02:48:30.899Z,4.95
2019-03-27T02:50:59.369Z,4.95
2019-03-27T02:53:27.812Z,5.02
2019-03-27T02:55:56.319Z,5.06
2019-03-27T02:58:24.782Z,5.10
2019-03-27T03:00:53.239Z,5.15
2019-03-27T03:03:21.736Z,5.21
2019-03-27T03:05:50.199Z,5.26
2019-03-27T03:08:18.653Z,5.31
2019-03-27T03:10:47.920Z,5.36
2019-03-27T03:13:16.360Z,5.41
2019-03-27T03:15:44.967Z,5.46
2019-03-27T03:18:13.449Z,5.50
2019-03-27T03:20:41.921Z,5.54
2019-03-27T03:23:10.377Z,5.57
2019-03-27T03:25:38.853Z,5.61
2019-03-27T03:28:07.314Z,5.64
2019-03-27T03:30:35.792Z,5.69
2019-03-27T03:33:04.292Z,5.72
2019-03-27T03:35:32.801Z,5.76
2019-03-27T03:38:01.250Z,5.79
2019-03-27T03:40:29.735Z,5.83
2019-03-27T03:42:58.205Z,5.86
2019-03-27T03:45:26.669Z,5.88
2019-03-27T03:47:55.165Z,5.92
2019-03-27T03:50:26.795Z,5.95
2019-03-27T03:52:55.270Z,5.97
2019-03-27T03:55:23.911Z,6.00
2019-03-27T03:57:52.437Z,6.03
2019-03-27T04:00:20.884Z,6.06
2019-03-27T04:02:49.943Z,6.10
2019-03-27T04:05:21.820Z,6.12
2019-03-27T04:07:50.277Z,6.16
2019-03-27T04:10:18.781Z,6.17
2019-03-27T04:12:47.284Z,6.22
2019-03-27T04:15:15.749Z,6.25
2019-03-27T04:17:44.283Z,6.27
2019-03-27T04:20:12.784Z,6.30
2019-03-27T04:22:41.239Z,6.33
2019-03-27T04:25:09.747Z,6.34
2019-03-27T04:27:38.199Z,6.37
2019-03-27T04:30:07.344Z,6.40
2019-03-27T04:32:35.784Z,6.41
2019-03-27T04:35:05.179Z,6.44
2019-03-27T04:37:33.634Z,6.45
2019-03-27T04:40:02.142Z,6.47
2019-03-27T04:42:30.595Z,6.48
2019-03-27T04:44:59.047Z,6.52
2019-03-27T04:47:32.501Z,6.52
2019-03-27T04:49:57.743Z,6.55
2019-03-27T04:52:26.183Z,6.56
2019-03-27T04:54:54.672Z,6.57
2019-03-27T04:57:23.152Z,6.59
2019-03-27T04:59:51.580Z,6.61
2019-03-27T05:02:20.076Z,6.62
2019-03-27T05:04:48.810Z,6.64
2019-03-27T05:07:17.257Z,6.66
2019-03-27T05:09:45.785Z,6.68
2019-03-27T05:12:14.241Z,6.71
2019-03-27T05:14:43.851Z,6.72
2019-03-27T05:17:12.326Z,6.75
2019-03-27T05:19:40.785Z,6.76
2019-03-27T05:22:09.244Z,6.77
2019-03-27T05:24:37.749Z,6.78
2019-03-27T05:27:06.219Z,6.79
2019-03-27T05:29:34.664Z,6.80
2019-03-27T05:32:03.159Z,6.82
2019-03-27T05:34:31.619Z,6.82
2019-03-27T05:37:00.141Z,6.85
2019-03-27T05:39:28.637Z,6.87
2019-03-27T05:41:57.105Z,6.89
2019-03-27T05:44:25.567Z,6.92
2019-03-27T05:46:54.054Z,6.96
2019-03-27T05:49:22.569Z,6.99
2019-03-27T05:51:51.045Z,7.03
2019-03-27T05:54:19.532Z,7.06
2019-03-27T05:56:48.003Z,7.10
2019-03-27T05:59:16.453Z,7.14
2019-03-27T06:01:44.949Z,7.17
2019-03-27T06:04:13.401Z,7.20
2019-03-27T06:06:41.856Z,7.24
2019-03-27T06:09:10.380Z,7.27
2019-03-27T06:11:38.817Z,7.30
2019-03-27T06:14:07.273Z,7.34
2019-03-27T06:16:35.898Z,7.38
2019-03-27T06:19:04.366Z,7.43
2019-03-27T06:21:32.833Z,7.47
2019-03-27T06:24:01.408Z,7.51
2019-03-27T06:26:29.910Z,7.55
2019-03-27T06:28:58.349Z,7.60
2019-03-27T06:31:26.817Z,7.62
2019-03-27T06:33:55.325Z,7.66
2019-03-27T06:36:23.811Z,7.70
2019-03-27T06:38:52.377Z,7.73
2019-03-27T06:41:20.865Z,7.76
2019-03-27T06:43:49.320Z,7.79
2019-03-27T06:46:17.822Z,7.79
2019-03-27T06:48:46.319Z,7.77
2019-03-27T06:51:14.851Z,7.78
2019-03-27T06:53:43.340Z,7.78
2019-03-27T06:56:13.429Z,7.82
2019-03-27T06:58:53.851Z,7.86
2019-03-27T07:01:12.115Z,7.91
2019-03-27T07:03:40.576Z,7.97
2019-03-27T07:06:09.056Z,8.07
2019-03-27T07:08:37.546Z,8.16
2019-03-27T07:11:06.026Z,8.25
2019-03-27T07:13:34.469Z,8.31
2019-03-27T07:16:02.991Z,8.35
2019-03-27T07:18:40.152Z,8.42
2019-03-27T07:21:02.640Z,8.45
2019-03-27T07:23:31.127Z,8.50
2019-03-27T07:25:59.572Z,8.53
2019-03-27T07:28:28.048Z,8.57
2019-03-27T07:30:56.568Z,8.65
2019-03-27T07:33:25.022Z,8.73
2019-03-27T07:35:53.489Z,8.81
2019-03-27T07:38:21.958Z,8.86
2019-03-27T07:40:50.416Z,8.89
2019-03-27T07:43:18.931Z,8.94
2019-03-27T07:45:47.414Z,8.98
2019-03-27T07:48:15.881Z,9.02
2019-03-27T07:50:44.333Z,9.05
2019-03-27T07:53:12.840Z,9.07
2019-03-27T07:55:41.319Z,9.12
2019-03-27T07:58:09.772Z,9.17
2019-03-27T08:00:38.262Z,9.25
2019-03-27T08:03:06.715Z,9.35
2019-03-27T08:05:35.169Z,9.40
2019-03-27T08:08:03.659Z,9.44
2019-03-27T08:10:32.112Z,9.44
2019-03-27T08:13:00.581Z,9.44
2019-03-27T08:15:29.078Z,9.43
2019-03-27T08:17:57.532Z,9.43
2019-03-27T08:20:26.132Z,9.43
2019-03-27T08:22:54.624Z,9.42
2019-03-27T08:25:23.090Z,9.42
2019-03-27T08:27:51.551Z,9.42
2019-03-27T08:30:20.180Z,9.43
2019-03-27T08:32:48.632Z,9.46
2019-03-27T08:35:17.161Z,9.51
2019-03-27T08:37:46.032Z,9.64
2019-03-27T08:40:14.969Z,9.79
2019-03-27T08:42:43.589Z,9.90
2019-03-27T08:45:12.510Z,10.00
2019-03-27T08:47:41.004Z,10.10
2019-03-27T08:50:10.371Z,10.20
2019-03-27T08:52:38.876Z,10.33
2019-03-27T08:55:07.687Z,10.46
2019-03-27T08:57:36.318Z,10.57
2019-03-27T09:00:10.062Z,10.67
2019-03-27T09:02:38.575Z,10.73
2019-03-27T09:05:08.091Z,10.77
2019-03-27T09:07:36.672Z,10.80
2019-03-27T09:10:10.394Z,10.82
2019-03-27T09:12:39.623Z,10.80
2019-03-27T09:15:09.295Z,10.78
2019-03-27T09:17:37.762Z,10.78
2019-03-27T09:20:07.091Z,10.79
2019-03-27T09:22:35.815Z,10.86
2019-03-27T09:25:05.998Z,10.89
2019-03-27T09:27:34.455Z,10.91
2019-03-27T09:30:05.777Z,10.91
2019-03-27T09:32:35.930Z,10.92
2019-03-27T09:35:07.695Z,10.88
2019-03-27T09:37:36.224Z,10.88
2019-03-27T09:40:07.524Z,10.88
2019-03-27T09:42:37.793Z,10.83
2019-03-27T09:45:09.583Z,10.81
2019-03-27T09:47:38.222Z,10.81
2019-03-27T09:50:06.893Z,10.90
2019-03-27T09:52:35.426Z,10.97
2019-03-27T09:55:05.423Z,11.04
2019-03-27T09:57:33.909Z,11.08
2019-03-27T10:00:02.377Z,11.09
2019-03-27T10:02:30.845Z,11.09
2019-03-27T10:04:59.331Z,11.11
2019-03-27T10:07:27.785Z,11.18
2019-03-27T10:09:56.248Z,11.24
2019-03-27T10:12:24.758Z,11.13
2019-03-27T10:14:53.187Z,11.31
2019-03-27T10:17:21.627Z,11.33
2019-03-27T10:20:02.754Z,11.32
2019-03-27T10:22:20.320Z,11.32
2019-03-27T10:24:48.894Z,11.28
2019-03-27T10:27:17.409Z,11.22
2019-03-27T10:29:45.866Z,11.17
2019-03-27T10:32:14.321Z,11.17
2019-03-27T10:34:42.835Z,11.20
2019-03-27T10:37:11.304Z,11.24
2019-03-27T10:39:39.770Z,11.29
2019-03-27T10:42:08.273Z,11.33
2019-03-27T10:44:36.731Z,11.37
2019-03-27T10:47:05.185Z,11.41
2019-03-27T10:49:34.533Z,11.45
2019-03-27T10:52:03.792Z,11.49
2019-03-27T10:54:32.236Z,11.51
2019-03-27T10:57:00.767Z,11.51
2019-03-27T10:59:29.240Z,11.48
2019-03-27T11:01:57.723Z,11.43
2019-03-27T11:04:26.204Z,11.40
2019-03-27T11:06:54.690Z,11.36
2019-03-27T11:09:23.140Z,11.31
2019-03-27T11:11:51.625Z,11.25
2019-03-27T11:14:20.095Z,11.19
2019-03-27T11:16:48.635Z,11.13
2019-03-27T11:19:17.140Z,11.09
2019-03-27T11:21:45.593Z,11.06
2019-03-27T11:24:14.054Z,11.00
2019-03-27T11:26:42.699Z,10.93
2019-03-27T11:29:11.140Z,10.89
2019-03-27T11:31:39.682Z,10.85
2019-03-27T11:34:08.198Z,10.84
2019-03-27T11:36:36.665Z,10.81
2019-03-27T11:39:08.311Z,10.76
2019-03-27T11:41:36.792Z,10.73
2019-03-27T11:44:05.434Z,10.71
2019-03-27T11:46:33.883Z,10.68
2019-03-27T11:49:02.381Z,10.66
2019-03-27T11:51:30.858Z,10.60
2019-03-27T11:53:59.311Z,10.60
2019-03-27T11:56:27.839Z,10.56
2019-03-27T11:58:56.351Z,10.57
2019-03-27T12:01:24.821Z,10.59
2019-03-27T12:03:54.239Z,10.60
2019-03-27T12:06:22.865Z,10.62
2019-03-27T12:08:51.346Z,10.62
2019-03-27T12:11:19.881Z,10.66
2019-03-27T12:13:48.795Z,10.68
2019-03-27T12:16:17.270Z,10.68
2019-03-27T12:18:45.751Z,10.68
2019-03-27T12:21:14.658Z,10.71
2019-03-27T12:23:43.131Z,10.76
2019-03-27T12:26:11.724Z,10.85
2019-03-27T12:28:41.198Z,10.93
2019-03-27T12:31:09.670Z,10.94
2019-03-27T12:33:38.121Z,10.92
2019-03-27T12:36:06.587Z,10.91
2019-03-27T12:38:35.082Z,10.89
2019-03-27T12:41:03.551Z,10.89
2019-03-27T12:43:32.017Z,10.87
2019-03-27T12:46:00.555Z,10.86
2019-03-27T12:48:29.009Z,10.81
2019-03-27T12:50:57.477Z,10.79
2019-03-27T12:53:25.975Z,10.79
2019-03-27T12:55:54.439Z,10.75
2019-03-27T12:58:22.892Z,10.74
2019-03-27T13:00:51.378Z,10.72
2019-03-27T13:03:21.436Z,10.73
2019-03-27T13:05:49.888Z,10.71
2019-03-27T13:08:18.396Z,10.72
2019-03-27T13:10:46.859Z,10.77
2019-03-27T13:13:15.325Z,10.83
2019-03-27T13:15:43.973Z,10.85
2019-03-27T13:18:12.470Z,10.87
2019-03-27T13:20:40.959Z,10.88
2019-03-27T13:23:09.483Z,10.92
2019-03-27T13:25:37.957Z,10.96
2019-03-27T13:28:06.520Z,11.01
2019-03-27T13:30:35.158Z,11.06
2019-03-27T13:33:03.663Z,11.10
2019-03-27T13:35:32.129Z,11.10
2019-03-27T13:38:00.650Z,11.08
2019-03-27T13:40:29.133Z,11.02
2019-03-27T13:42:57.623Z,11.01
2019-03-27T13:45:27.072Z,11.01
2019-03-27T13:47:55.572Z,11.01
2019-03-27T13:50:24.199Z,11.03
2019-03-27T13:52:52.717Z,11.06
2019-03-27T13:55:21.176Z,11.10
2019-03-27T13:57:49.640Z,11.14
2019-03-27T14:00:18.539Z,11.17
2019-03-27T14:02:47.008Z,11.19
2019-03-27T14:05:15.846Z,11.23
2019-03-27T14:07:44.468Z,11.25
2019-03-27T14:10:13.437Z,11.30
2019-03-27T14:12:41.929Z,11.32
2019-03-27T14:15:11.063Z,11.34
2019-03-27T14:17:39.987Z,11.35
2019-03-27T14:20:09.304Z,11.34
2019-03-27T14:22:37.849Z,11.33
2019-03-27T14:25:10.194Z,11.33
2019-03-27T14:27:38.678Z,11.32
2019-03-27T14:30:10.027Z,11.29
2019-03-27T14:32:39.581Z,11.28
2019-03-27T14:35:09.021Z,11.29
2019-03-27T14:37:37.467Z,11.31
2019-03-27T14:40:07.492Z,11.37
2019-03-27T14:42:36.080Z,11.40
2019-03-27T14:45:08.764Z,11.40
2019-03-27T14:47:37.317Z,11.40
2019-03-27T14:50:09.077Z,11.38
2019-03-27T14:52:37.519Z,11.35
2019-03-27T14:55:07.466Z,11.29
2019-03-27T14:57:36.278Z,11.22
2019-03-27T15:00:07.715Z,11.16
2019-03-27T15:02:36.181Z,11.10
2019-03-27T15:05:06.258Z,11.05
2019-03-27T15:07:34.729Z,11.00
2019-03-27T15:10:03.864Z,10.94
2019-03-27T15:12:32.379Z,10.88
2019-03-27T15:15:00.862Z,10.81
2019-03-27T15:17:29.323Z,10.77
2019-03-27T15:19:57.850Z,10.74
2019-03-27T15:22:26.293Z,10.71
2019-03-27T15:24:54.769Z,10.70
2019-03-27T15:27:23.265Z,10.67
2019-03-27T15:29:51.729Z,10.63
2019-03-27T15:32:20.190Z,10.61
2019-03-27T15:34:48.764Z,10.57
2019-03-27T15:37:17.711Z,10.53
2019-03-27T15:39:46.173Z,10.49
2019-03-27T15:42:14.657Z,10.45
2019-03-27T15:44:43.112Z,10.42
2019-03-27T15:47:11.580Z,10.40
2019-03-27T15:49:40.180Z,10.38
2019-03-27T15:52:08.651Z,10.38
2019-03-27T15:54:37.114Z,10.38
2019-03-27T15:57:05.644Z,10.37
2019-03-27T15:59:34.080Z,10.38
2019-03-27T16:02:02.570Z,10.35
2019-03-27T16:04:31.056Z,10.35
2019-03-27T16:07:00.498Z,10.33
2019-03-27T16:09:28.975Z,10.33
2019-03-27T16:11:59.138Z,10.32
2019-03-27T16:14:27.594Z,10.33
2019-03-27T16:17:11.931Z,10.31
2019-03-27T16:19:26.342Z,10.31
2019-03-27T16:21:54.794Z,10.30
2019-03-27T16:24:23.237Z,10.29
2019-03-27T16:27:03.851Z,10.30
2019-03-27T16:29:21.948Z,10.30
2019-03-27T16:31:50.403Z,10.29
2019-03-27T16:34:18.882Z,10.29
2019-03-27T16:36:47.651Z,10.29
2019-03-27T16:39:16.137Z,10.28
2019-03-27T16:41:44.634Z,10.26
2019-03-27T16:44:13.173Z,10.25
2019-03-27T16:46:41.639Z,10.23
2019-03-27T16:49:10.124Z,10.21
2019-03-27T16:51:38.571Z,10.18
2019-03-27T16:54:07.025Z,10.17
2019-03-27T16:56:35.488Z,10.16
2019-03-27T16:59:03.954Z,10.14
2019-03-27T17:01:32.401Z,10.13
2019-03-27T17:04:00.930Z,10.12
2019-03-27T17:06:29.377Z,10.11
2019-03-27T17:08:57.833Z,10.12
2019-03-27T17:11:26.428Z,10.13
2019-03-27T17:13:54.869Z,10.13
2019-03-27T17:16:23.318Z,10.12
2019-03-27T17:18:51.819Z,10.13
2019-03-27T17:21:20.282Z,10.13
2019-03-27T17:23:48.757Z,10.11
2019-03-27T17:26:17.297Z,10.12
2019-03-27T17:28:45.785Z,10.10
2019-03-27T17:31:14.360Z,10.08
2019-03-27T17:33:43.224Z,10.07
2019-03-27T17:36:11.851Z,10.05
2019-03-27T17:38:41.609Z,10.03
2019-03-27T17:41:10.236Z,10.03
2019-03-27T17:43:38.727Z,10.01
2019-03-27T17:46:07.256Z,10.00
2019-03-27T17:48:36.132Z,9.99
2019-03-27T17:51:05.065Z,9.98
2019-03-27T17:53:33.791Z,9.98
2019-03-27T17:56:02.651Z,9.98
2019-03-27T17:58:31.333Z,9.97
2019-03-27T18:01:01.708Z,9.95
2019-03-27T18:03:30.843Z,9.93
2019-03-27T18:05:59.446Z,9.92
2019-03-27T18:08:28.083Z,9.91
2019-03-27T18:10:57.281Z,9.91
2019-03-27T18:13:26.195Z,9.91
2019-03-27T18:15:54.694Z,9.91
2019-03-27T18:18:23.208Z,9.91
2019-03-27T18:20:51.670Z,9.90
2019-03-27T18:23:20.124Z,9.90
2019-03-27T18:25:48.664Z,9.88
2019-03-27T18:28:17.144Z,9.88
2019-03-27T18:30:45.665Z,9.88
2019-03-27T18:33:14.174Z,9.86
2019-03-27T18:35:42.693Z,9.84
2019-03-27T18:38:11.150Z,9.84
2019-03-27T18:40:39.702Z,9.82
2019-03-27T18:43:08.164Z,9.81
2019-03-27T18:45:36.622Z,9.79
2019-03-27T18:48:05.123Z,9.79
2019-03-27T18:50:33.578Z,9.77
2019-03-27T18:53:02.040Z,9.76
2019-03-27T18:55:30.548Z,9.76
2019-03-27T18:58:00.648Z,9.74
2019-03-27T19:00:29.427Z,9.74
2019-03-27T19:02:57.995Z,9.73
2019-03-27T19:05:26.458Z,9.74
2019-03-27T19:07:54.910Z,9.73
2019-03-27T19:10:23.402Z,9.73
2019-03-27T19:12:51.857Z,9.74
2019-03-27T19:15:20.306Z,9.74
2019-03-27T19:17:48.838Z,9.75
2019-03-27T19:20:17.364Z,9.75
2019-03-27T19:22:45.893Z,9.74
2019-03-27T19:25:14.388Z,9.73
2019-03-27T19:27:42.840Z,9.73
2019-03-27T19:30:11.496Z,9.74
2019-03-27T19:32:40.000Z,9.74
2019-03-27T19:35:08.457Z,9.75
2019-03-27T19:37:36.909Z,9.74
2019-03-27T19:40:06.059Z,9.76
2019-03-27T19:42:34.671Z,9.76
2019-03-27T19:45:03.741Z,9.76
2019-03-27T19:47:32.235Z,9.77
2019-03-27T19:50:00.711Z,9.77
2019-03-27T19:52:29.161Z,9.77
2019-03-27T19:54:57.662Z,9.77
2019-03-27T19:57:26.120Z,9.77
2019-03-27T19:59:54.573Z,9.77
2019-03-27T20:02:23.061Z,9.78
2019-03-27T20:04:51.507Z,9.77
2019-03-27T20:07:19.971Z,9.76
2019-03-27T20:09:48.515Z,9.75
2019-03-27T20:12:16.935Z,9.76
2019-03-27T20:14:45.392Z,9.75
2019-03-27T20:17:13.914Z,9.75
2019-03-27T20:19:42.381Z,9.77
2019-03-27T20:22:10.877Z,9.78
2019-03-27T20:24:41.190Z,9.78
2019-03-27T20:27:09.543Z,9.78
2019-03-27T20:29:38.006Z,9.78
2019-03-27T20:32:06.519Z,9.79
2019-03-27T20:34:37.721Z,9.79
2019-03-27T20:37:06.185Z,9.79
2019-03-27T20:39:34.679Z,9.79
2019-03-27T20:42:03.221Z,9.78
2019-03-27T20:44:31.681Z,9.78
2019-03-27T20:47:00.217Z,9.78
2019-03-27T20:49:28.655Z,9.79
2019-03-27T20:51:57.112Z,9.79
2019-03-27T20:54:26.005Z,9.78
2019-03-27T20:56:54.593Z,9.79
2019-03-27T20:59:23.052Z,9.79
2019-03-27T21:01:51.628Z,9.79
2019-03-27T21:04:20.082Z,9.79
2019-03-27T21:06:48.527Z,9.79
2019-03-27T21:09:17.034Z,9.78
2019-03-27T21:11:45.486Z,9.78
2019-03-27T21:14:13.942Z,9.77
2019-03-27T21:16:42.409Z,9.78
2019-03-27T21:19:10.881Z,9.79
2019-03-27T21:21:41.798Z,9.77
2019-03-27T21:24:09.609Z,9.78
2019-03-27T21:26:38.052Z,9.76
2019-03-27T21:29:06.511Z,9.74
2019-03-27T21:31:35.007Z,9.74
2019-03-27T21:34:03.464Z,9.72
2019-03-27T21:36:31.921Z,9.72
2019-03-27T21:39:00.388Z,9.70
2019-03-27T21:41:28.904Z,9.71
2019-03-27T21:43:57.491Z,9.69
2019-03-27T21:46:25.990Z,9.70
2019-03-27T21:48:54.438Z,9.70
2019-03-27T21:51:22.898Z,9.69
2019-03-27T21:53:51.387Z,9.69
2019-03-27T21:56:19.844Z,9.68
2019-03-27T21:58:48.304Z,9.66
2019-03-27T22:01:16.806Z,9.66
2019-03-27T22:03:45.254Z,9.66
2019-03-27T22:06:13.696Z,9.64
2019-03-27T22:08:42.203Z,9.47
2019-03-27T22:11:10.646Z,9.64
2019-03-27T22:13:39.087Z,9.65
2019-03-27T22:16:07.571Z,9.65
2019-03-27T22:18:36.028Z,9.65
2019-03-27T22:21:04.484Z,9.64
2019-03-27T22:23:32.967Z,9.64
2019-03-27T22:26:01.431Z,9.63
2019-03-27T22:28:29.894Z,9.61
2019-03-27T22:30:58.396Z,9.62
2019-03-27T22:33:26.883Z,9.63
2019-03-27T22:35:55.327Z,9.64
2019-03-27T22:38:23.849Z,9.66
2019-03-27T22:40:52.297Z,9.68
2019-03-27T22:43:20.741Z,9.68
2019-03-27T22:45:50.298Z,9.68
2019-03-27T22:48:18.741Z,9.69
2019-03-27T22:50:47.181Z,9.67
2019-03-27T22:53:15.692Z,9.68
2019-03-27T22:55:50.347Z,9.68
2019-03-27T22:58:14.309Z,9.68
2019-03-27T23:00:49.213Z,9.67
2019-03-27T23:03:18.917Z,9.65
2019-03-27T23:05:47.614Z,9.64
2019-03-27T23:08:16.092Z,9.61
2019-03-27T23:10:44.531Z,9.60
2019-03-27T23:13:13.157Z,9.59
2019-03-27T23:15:41.732Z,9.57
2019-03-27T23:18:10.196Z,9.55
2019-03-27T23:20:38.647Z,9.53
2019-03-27T23:23:07.138Z,9.51
2019-03-27T23:25:35.583Z,9.50
2019-03-27T23:28:04.019Z,9.51
2019-03-27T23:30:32.517Z,9.49
2019-03-27T23:33:00.972Z,9.48
2019-03-27T23:35:29.414Z,9.49
2019-03-27T23:37:57.913Z,9.48
2019-03-27T23:40:26.432Z,9.49
2019-03-27T23:42:54.901Z,9.48
2019-03-27T23:45:23.397Z,9.46
2019-03-27T23:47:51.997Z,9.45
2019-03-27T23:50:20.463Z,9.44
2019-03-27T23:52:48.974Z,9.42
2019-03-27T23:55:17.435Z,9.40
2019-03-27T23:57:45.882Z,9.37
